AirNav   Bose Proflight Series 2 Wireless Aviation Headset
 
 1037 users online  

3PS2 Chestnut Street Garage Heliport
Harrisburg, Pennsylvania, USA

GOING TO HARRISBURG?


FAA INFORMATION EFFECTIVE 07 NOVEMBER 2019

Location

FAA Identifier: 3PS2
Lat/Long: 40-15-30.3210N 076-52-46.9040W
40-15.505350N 076-52.781733W
40.2584225,-76.8796956
(estimated)
Elevation: 385 ft. / 117 m (estimated)
Variation: 10W (1985)
Time zone: UTC -5 (UTC -4 during Daylight Saving Time)
Zip code: 17101

Heliport Operations

Heliport use: Private use. Permission required prior to landing
Activation date: 03/1987
Control tower: no
ARTCC: NEW YORK CENTER
FSS: WILLIAMSPORT FLIGHT SERVICE STATION
Attendance: UNATNDD
Wind indicator: lighted
Segmented circle: no
Lights: FOR PERIMETER LGTS CALL 717-782-3620

Heliport Communications

WX ASOS at CXY (2.8 nm SE): PHONE 717-770-0880
WX ASOS at MDT (7 nm SE): PHONE 717-944-1372
WX ASOS at MUI (18 nm NE): 124.175 (717-861-2536)

Nearby radio navigation aids

VOR radial/distance  VOR name  Freq  Var
HARr117/9.1HARRISBURG VORTAC112.5010W
RAVr227/21.8RAVINE VORTAC114.6011W
LRPr296/28.2LANCASTER VOR/DME117.3009W
SEGr188/31.9SELINSGROVE VOR/DME110.4008W

 
NDB name  Hdg/Dist  Freq  Var  ID
ENOLA064/1.220411WMD -- -..
LATLE061/7.521911WCX -.-. -..-
BELLGROVE245/18.332810WBZJ -... --.. .---

Heliport Services

Runway Information

Helipad H1

Dimensions: 65 x 65 ft. / 20 x 20 m
Surface: concrete
Runway edge lights: PERI
Latitude: 40-15.505350N
Longitude: 076-52.781733W
Elevation: 385.0 ft.
Traffic pattern: leftleft

Heliport Ownership and Management from official FAA records

Ownership: Privately-owned
Owner: HARRISBURG HOSPITAL
SOUTH FRONT STREET
HARRISBURG, PA 17101
Phone 717-782-3620
Manager: JOE MORRISON
SOUTH FRONT STREET
HARRISBURG, PA 17101
Phone 717-782-3620

Additional Remarks

FOR CD CTC HARRISBURG APCH AT 800-932-0712.

Instrument Procedures

There are no published instrument procedures at 3PS2.

Some nearby airports with instrument procedures:

KCXY - Capital City Airport (3 nm SE)
KMDT - Harrisburg International Airport (7 nm SE)
58N - Reigle Field Airport (14 nm E)
N94 - Carlisle Airport (14 nm W)
N71 - Donegal Springs Airpark (17 nm SE)
KMUI - Muir Army Airfield (Fort Indiantown Gap) (18 nm NE)
 
Loc | Ops | Rwys | IFR | FBO | Links
Com | Nav | Svcs | Stats | Notes
Area around 3PS2 (Chestnut Street Garage Heliport)
 
Road maps at: MapQuest Bing Google
 
Aerial photo
No photo
 
Sectional chart

 
Airport distance calculator
Flying to Chestnut Street Garage Heliport? Find the distance to fly.

From to 3PS2

Sunrise and sunset
Times for 17-Nov-2019
 Local
(UTC-5)
 Zulu
(UTC)
Morning civil twilight06:2711:27
Sunrise06:5711:57
Sunset16:4821:48
Evening civil twilight17:1822:18

Current date and time
Zulu (UTC)  18-Nov-2019 02:26:29
Local (UTC-5)  17-Nov-2019 21:26:29
 
METAR
KCXY 
3nm SE 
180212Z AUTO 08006KT 10SM BKN022 OVC039 05/M02 A3008 RMK AO2 T00501022
KMDT 
6nm SE 
180156Z 08007KT 10SM OVC023 04/M02 A3008 RMK AO2 SLP189 T00391022
KMUI 
17nm NE 
180156Z AUTO 06003KT 10SM SCT014 OVC020 03/M01 A3008 RMK AO2 CIG 014V020 SLP194 T00261009 $
TAF
KMDT 
6nm SE 
172359Z 1800/1824 06005KT P6SM BKN025 OVC035 FM180800 35004KT P6SM OVC017 FM181600 34005KT P6SM BKN025 FM181900 34005KT P6SM BKN035 OVC150
KMUI 
17nm NE 
171900Z 1719/1901 08012KT 9999 BKN030 620302 QNH3017INS BECMG 1720/1721 07006KT 9999 OVC020 QNH3006INS BECMG 1802/1803 06006KT 9999 OVC015 QNH2993INS BECMG 1808/1809 03006KT 9999 OVC009 620954 QNH2984INS BECMG 1811/1813 34006KT 6000 -RA OVC009 620904 QNH2967INS BECMG 1900/1901 32006KT 9000 -RA OVC008 620509 QNH2967INS TX06/1818Z TN00/1800Z LAST NO AMDS AFT 1719 NEXT 1811
NOTAMs
Click for the latest NOTAMs
NOTAMs are issued by the DoD/FAA and will open in a separate window not controlled by AirNav.

 

 
 

Would you like to see your business listed on this page?

 If your business provides an interesting product or service to pilots, flight crews, aircraft, or users of the Chestnut Street Garage Heliport, you should consider listing it here.  To start the listing process, click on the button below
 
Add a business
 

Other Pages about Chestnut Street Garage Heliport

Update a link
 
Copyright © AirNav, LLC. All rights reserved. Privacy Policy  Contact